createdAt,value
2018-04-28T00:02:21.233Z,11.47
2018-04-28T00:04:48.678Z,11.60
2018-04-28T00:07:16.834Z,11.93
2018-04-28T00:09:44.262Z,11.60
2018-04-28T00:12:11.699Z,11.10
2018-04-28T00:14:39.122Z,11.37
2018-04-28T00:17:06.554Z,11.10
2018-04-28T00:19:35.379Z,11.23
2018-04-28T00:22:11.650Z,11.40
2018-04-28T00:24:39.107Z,10.77
2018-04-28T00:27:09.493Z,11.70
2018-04-28T00:29:36.975Z,11.63
2018-04-28T00:32:08.634Z,11.20
2018-04-28T00:34:41.860Z,13.07
2018-04-28T00:37:10.229Z,11.93
2018-04-28T00:42:45.924Z,13.57
2018-04-28T00:45:19.315Z,12.37
2018-04-28T00:47:50.371Z,12.60
2018-04-28T00:50:26.930Z,11.33
2018-04-28T00:52:54.447Z,11.60
2018-04-28T00:58:15.710Z,13.97
2018-04-28T01:00:47.339Z,15.47
2018-04-28T01:03:14.831Z,13.93
2018-04-28T01:05:48.092Z,13.73
2018-04-28T01:08:30.409Z,13.63
2018-04-28T01:11:01.323Z,11.90
2018-04-28T01:13:43.654Z,13.93
2018-04-28T01:16:12.942Z,12.83
2018-04-28T01:18:41.863Z,12.67
2018-04-28T01:21:09.288Z,12.27
2018-04-28T01:23:48.243Z,16.80
2018-04-28T01:26:23.486Z,13.63
2018-04-28T01:28:52.828Z,13.77
2018-04-28T01:31:24.922Z,15.77
2018-04-28T01:37:18.849Z,15.07
2018-04-28T01:39:47.220Z,13.80
2018-04-28T01:42:50.245Z,15.07
2018-04-28T01:45:28.280Z,14.10
2018-04-28T01:48:22.534Z,13.10
2018-04-28T01:50:54.605Z,15.90
2018-04-28T01:53:23.119Z,13.47
2018-04-28T01:56:00.537Z,12.40
2018-04-28T01:58:28.898Z,14.07
2018-04-28T02:01:00.296Z,13.77
2018-04-28T02:03:51.891Z,14.20
2018-04-28T02:06:26.306Z,12.27
2018-04-28T02:09:04.926Z,13.03
2018-04-28T02:11:39.898Z,13.07
2018-04-28T02:14:15.058Z,13.40
2018-04-28T02:16:42.524Z,17.40
2018-04-28T02:19:29.617Z,14.30
2018-04-28T02:22:09.676Z,13.50
2018-04-28T02:24:59.867Z,14.33
2018-04-28T02:27:43.956Z,13.20
2018-04-28T02:30:11.462Z,13.83
2018-04-28T02:32:46.842Z,13.87
2018-04-28T02:35:16.994Z,17.23
2018-04-28T02:37:56.894Z,14.90
2018-04-28T02:41:00.934Z,14.40
2018-04-28T02:43:45.951Z,14.40
2018-04-28T02:46:14.172Z,13.87
2018-04-28T02:48:50.124Z,14.37
2018-04-28T02:51:28.147Z,12.80
2018-04-28T02:54:30.092Z,13.10
2018-04-28T02:57:08.855Z,13.50
2018-04-28T02:59:40.818Z,16.40
2018-04-28T03:02:10.090Z,16.23
2018-04-28T03:04:39.410Z,19.27
2018-04-28T03:10:44.019Z,15.30
2018-04-28T03:13:19.378Z,15.30
2018-04-28T03:15:46.832Z,17.47
2018-04-28T03:18:14.250Z,14.57
2018-04-28T03:20:46.306Z,14.80
2018-04-28T03:23:30.232Z,14.80
2018-04-28T03:25:57.668Z,13.37
2018-04-28T03:28:42.039Z,13.67
2018-04-28T03:34:15.558Z,11.90
2018-04-28T03:36:48.662Z,15.40
2018-04-28T03:39:17.469Z,13.47
2018-04-28T03:50:32.737Z,11.70
2018-04-28T03:53:06.951Z,10.87
2018-04-28T03:55:36.253Z,11.00
2018-04-28T03:58:15.502Z,10.90
2018-04-28T04:00:55.159Z,9.60
2018-04-28T04:03:22.699Z,9.73
2018-04-28T04:05:53.765Z,9.17
2018-04-28T04:08:38.398Z,10.23
2018-04-28T04:11:23.989Z,9.23
2018-04-28T04:14:12.339Z,11.37
2018-04-28T04:16:50.526Z,9.50
2018-04-28T04:19:21.596Z,11.87
2018-04-28T04:21:52.866Z,11.30
2018-04-28T04:24:21.081Z,10.67
2018-04-28T04:26:56.183Z,9.37
2018-04-28T04:29:36.382Z,12.50
2018-04-28T04:32:08.455Z,10.40
2018-04-28T04:34:44.799Z,11.20
2018-04-28T04:37:12.914Z,10.63
2018-04-28T04:39:43.990Z,10.43
2018-04-28T04:42:28.792Z,10.63
2018-04-28T04:45:17.905Z,11.30
2018-04-28T04:47:53.934Z,10.70
2018-04-28T04:50:33.344Z,10.57
2018-04-28T04:56:40.730Z,10.70
2018-04-28T04:59:32.671Z,10.87
2018-04-28T05:02:17.422Z,11.03
2018-04-28T05:04:50.576Z,10.60
2018-04-28T05:07:28.864Z,10.70
2018-04-28T05:09:58.065Z,10.43
2018-04-28T05:12:45.059Z,10.73
2018-04-28T05:15:20.506Z,10.77
2018-04-28T05:17:48.708Z,9.57
2018-04-28T05:20:28.020Z,11.53
2018-04-28T05:23:07.504Z,9.43
2018-04-28T05:25:57.845Z,9.83
2018-04-28T05:31:53.581Z,9.67
2018-04-28T05:34:33.813Z,9.47
2018-04-28T05:40:32.916Z,8.53
2018-04-28T05:46:11.349Z,8.93
2018-04-28T05:49:03.590Z,8.33
2018-04-28T05:54:52.874Z,8.03
2018-04-28T05:57:32.186Z,8.27
2018-04-28T06:00:16.622Z,7.80
2018-04-28T06:02:50.912Z,9.17
2018-04-28T06:05:51.853Z,7.97
2018-04-28T06:08:26.145Z,8.03
2018-04-28T06:11:16.465Z,8.30
2018-04-28T06:13:49.912Z,7.53
2018-04-28T06:16:45.525Z,7.20
2018-04-28T06:19:19.958Z,7.23
2018-04-28T06:21:47.427Z,7.37
2018-04-28T06:24:14.856Z,7.40
2018-04-28T06:26:42.318Z,7.70
2018-04-28T06:29:09.742Z,7.33
2018-04-28T06:31:37.977Z,7.27
2018-04-28T06:34:05.398Z,7.27
2018-04-28T06:36:32.892Z,7.10
2018-04-28T06:39:00.425Z,7.77
2018-04-28T06:41:27.919Z,6.70
2018-04-28T06:43:56.178Z,6.87
2018-04-28T06:46:23.722Z,9.03
2018-04-28T06:48:51.152Z,8.40
2018-04-28T06:51:18.681Z,7.57
2018-04-28T06:53:47.135Z,6.87
2018-04-28T06:56:14.553Z,7.83
2018-04-28T06:58:42.014Z,6.67
2018-04-28T07:01:09.489Z,7.53
2018-04-28T07:03:36.927Z,6.87
2018-04-28T07:06:04.368Z,5.87
2018-04-28T07:08:32.576Z,6.57
2018-04-28T07:11:00.633Z,8.33
2018-04-28T07:13:28.133Z,6.30
2018-04-28T07:15:55.778Z,6.50
2018-04-28T07:18:23.211Z,6.57
2018-04-28T07:20:50.639Z,6.73
2018-04-28T07:23:18.832Z,6.43
2018-04-28T07:25:47.030Z,5.87
2018-04-28T07:28:14.526Z,7.37
2018-04-28T07:30:41.958Z,6.23
2018-04-28T07:33:09.392Z,6.97
2018-04-28T07:35:37.797Z,6.07
2018-04-28T07:38:06.701Z,6.67
2018-04-28T07:40:34.136Z,7.97
2018-04-28T07:43:01.591Z,5.77
2018-04-28T07:45:29.022Z,6.33
2018-04-28T07:47:58.370Z,7.57
2018-04-28T07:50:25.831Z,7.70
2018-04-28T07:52:53.275Z,7.50
2018-04-28T07:55:20.697Z,6.33
2018-04-28T07:57:48.155Z,6.43
2018-04-28T08:00:15.656Z,4.90
2018-04-28T08:02:43.975Z,7.07
2018-04-28T08:05:12.355Z,5.47
2018-04-28T08:07:44.007Z,5.37
2018-04-28T08:10:12.226Z,5.37
2018-04-28T08:12:39.700Z,6.85
2018-04-28T08:15:07.311Z,6.72
2018-04-28T08:17:34.682Z,4.85
2018-04-28T08:20:02.123Z,5.65
2018-04-28T08:22:29.611Z,6.00
2018-04-28T08:24:57.077Z,6.95
2018-04-28T08:27:24.598Z,5.12
2018-04-28T08:29:52.813Z,5.32
2018-04-28T08:32:20.238Z,4.90
2018-04-28T08:34:48.469Z,7.18
2018-04-28T08:37:15.932Z,5.10
2018-04-28T08:39:43.318Z,5.35
2018-04-28T08:42:11.519Z,5.40
2018-04-28T08:44:39.243Z,6.00
2018-04-28T08:47:06.858Z,6.05
2018-04-28T08:49:34.312Z,7.35
2018-04-28T08:52:02.196Z,7.75
2018-04-28T08:54:29.638Z,7.07
2018-04-28T08:56:57.106Z,6.07
2018-04-28T08:59:36.469Z,6.30
2018-04-28T09:02:03.962Z,5.80
2018-04-28T09:04:32.271Z,6.10
2018-04-28T09:06:59.718Z,5.62
2018-04-28T09:09:27.197Z,6.15
2018-04-28T09:11:54.661Z,7.18
2018-04-28T09:14:22.164Z,6.65
2018-04-28T09:16:50.353Z,6.97
2018-04-28T09:19:18.662Z,8.18
2018-04-28T09:21:46.098Z,6.90
2018-04-28T09:24:13.601Z,9.15
2018-04-28T09:26:41.084Z,6.80
2018-04-28T09:29:08.555Z,7.28
2018-04-28T09:31:37.005Z,7.72
2018-04-28T09:34:04.468Z,6.78
2018-04-28T09:36:32.001Z,7.12
2018-04-28T09:38:59.444Z,7.40
2018-04-28T09:41:27.911Z,6.53
2018-04-28T09:43:55.347Z,13.18
2018-04-28T09:46:24.538Z,7.40
2018-04-28T09:48:51.948Z,7.05
2018-04-28T09:51:19.440Z,8.10
2018-04-28T09:53:46.857Z,8.10
2018-04-28T09:56:14.358Z,11.25
2018-04-28T09:58:41.807Z,8.65
2018-04-28T10:01:09.258Z,11.30
2018-04-28T10:03:36.723Z,9.55
2018-04-28T10:06:05.271Z,9.93
2018-04-28T10:08:32.793Z,9.57
2018-04-28T10:11:01.026Z,9.60
2018-04-28T10:13:28.479Z,10.13
2018-04-28T10:15:56.144Z,9.15
2018-04-28T10:18:23.566Z,10.48
2018-04-28T10:20:51.023Z,11.77
2018-04-28T10:23:18.471Z,10.10
2018-04-28T10:25:46.667Z,9.02
2018-04-28T10:28:14.420Z,11.38
2018-04-28T10:30:41.965Z,9.07
2018-04-28T10:33:10.226Z,9.52
2018-04-28T10:35:37.696Z,9.75
2018-04-28T10:38:06.262Z,9.30
2018-04-28T10:40:33.717Z,7.50
2018-04-28T10:43:01.165Z,7.90
2018-04-28T10:45:28.610Z,8.35
2018-04-28T10:47:56.159Z,10.57
2018-04-28T10:50:23.584Z,9.32
2018-04-28T10:52:51.078Z,9.02
2018-04-28T10:55:18.623Z,8.40
2018-04-28T10:57:46.115Z,6.32
2018-04-28T11:00:13.550Z,7.70
2018-04-28T11:02:41.003Z,7.10
2018-04-28T11:05:08.582Z,11.07
2018-04-28T11:07:36.022Z,5.22
2018-04-28T11:10:03.444Z,6.95
2018-04-28T11:12:31.640Z,5.80
2018-04-28T11:14:59.108Z,7.60
2018-04-28T11:17:26.562Z,8.00
2018-04-28T11:19:54.072Z,6.68
2018-04-28T11:22:21.489Z,8.52
2018-04-28T11:24:48.959Z,8.32
2018-04-28T11:27:16.463Z,5.93
2018-04-28T11:29:44.933Z,7.82
2018-04-28T11:32:12.375Z,7.47
2018-04-28T11:34:39.901Z,8.40
2018-04-28T11:37:07.489Z,6.43
2018-04-28T11:39:34.936Z,8.37
2018-04-28T11:42:02.395Z,11.67
2018-04-28T11:44:29.835Z,6.13
2018-04-28T11:46:57.306Z,7.40
2018-04-28T11:49:26.379Z,7.93
2018-04-28T11:51:53.811Z,6.13
2018-04-28T11:54:21.514Z,7.07
2018-04-28T11:56:50.111Z,8.30
2018-04-28T11:59:17.541Z,6.17
2018-04-28T12:01:45.174Z,5.53
2018-04-28T12:04:13.367Z,7.20
2018-04-28T12:06:40.799Z,5.80
2018-04-28T12:09:08.311Z,6.03
2018-04-28T12:11:35.749Z,6.90
2018-04-28T12:14:03.272Z,7.47
2018-04-28T12:16:30.701Z,9.67
2018-04-28T12:18:58.354Z,7.03
2018-04-28T12:21:25.913Z,7.00
2018-04-28T12:23:53.353Z,6.43
2018-04-28T12:26:20.787Z,7.83
2018-04-28T12:28:48.275Z,6.70
2018-04-28T12:31:15.710Z,10.87
2018-04-28T12:33:43.237Z,6.93
2018-04-28T12:36:10.679Z,7.90
2018-04-28T12:38:38.128Z,6.62
2018-04-28T12:41:05.573Z,8.20
2018-04-28T12:43:33.278Z,7.37
2018-04-28T12:46:00.827Z,9.43
2018-04-28T12:48:28.275Z,8.15
2018-04-28T12:50:55.729Z,7.40
2018-04-28T12:53:24.203Z,6.60
2018-04-28T12:55:51.859Z,7.03
2018-04-28T12:58:21.305Z,7.28
2018-04-28T13:00:48.745Z,5.55
2018-04-28T13:03:16.162Z,4.95
2018-04-28T13:05:43.650Z,9.93
2018-04-28T13:08:11.182Z,7.50
2018-04-28T13:10:38.561Z,6.70
2018-04-28T13:13:06.026Z,4.82
2018-04-28T13:15:33.460Z,6.78
2018-04-28T13:18:01.133Z,5.72
2018-04-28T13:20:28.592Z,4.65
2018-04-28T13:22:56.090Z,4.50
2018-04-28T13:25:24.355Z,5.80
2018-04-28T13:27:55.066Z,7.73
2018-04-28T13:30:22.514Z,4.80
2018-04-28T13:32:49.950Z,6.53
2018-04-28T13:35:17.403Z,4.63
2018-04-28T13:37:45.316Z,5.32
2018-04-28T13:40:12.965Z,5.47
2018-04-28T13:42:40.491Z,6.87
2018-04-28T13:45:07.918Z,6.25
2018-04-28T13:47:35.559Z,7.03
2018-04-28T13:50:03.063Z,5.10
2018-04-28T13:52:30.776Z,7.05
2018-04-28T13:54:58.679Z,6.10
2018-04-28T13:57:26.918Z,5.55
2018-04-28T13:59:54.338Z,7.25
2018-04-28T14:02:21.888Z,6.70
2018-04-28T14:04:50.170Z,8.23
2018-04-28T14:07:18.415Z,6.43
2018-04-28T14:09:45.902Z,10.45
2018-04-28T14:12:13.293Z,5.40
2018-04-28T14:14:40.735Z,5.00
2018-04-28T14:17:08.188Z,4.03
2018-04-28T14:19:35.679Z,7.45
2018-04-28T14:22:03.106Z,6.68
2018-04-28T14:24:30.593Z,9.18
2018-04-28T14:26:58.363Z,3.78
2018-04-28T14:29:25.810Z,4.47
2018-04-28T14:31:53.307Z,4.50
2018-04-28T14:34:20.843Z,9.37
2018-04-28T14:36:48.269Z,4.03
2018-04-28T14:39:15.685Z,5.80
2018-04-28T14:41:44.005Z,4.63
2018-04-28T14:44:11.466Z,6.87
2018-04-28T14:46:38.909Z,7.20
2018-04-28T14:49:06.381Z,10.33
2018-04-28T14:51:33.870Z,7.07
2018-04-28T14:54:01.294Z,7.90
2018-04-28T14:56:28.960Z,5.80
2018-04-28T14:58:56.397Z,7.43
2018-04-28T15:01:23.894Z,4.05
2018-04-28T15:03:51.330Z,4.95
2018-04-28T15:06:18.767Z,4.63
2018-04-28T15:08:46.941Z,4.62
2018-04-28T15:11:14.386Z,4.80
2018-04-28T15:13:42.565Z,4.73
2018-04-28T15:16:10.023Z,5.70
2018-04-28T15:18:38.231Z,3.67
2018-04-28T15:21:05.698Z,8.10
2018-04-28T15:23:33.146Z,5.97
2018-04-28T15:26:00.720Z,3.90
2018-04-28T15:28:28.210Z,3.77
2018-04-28T15:30:55.629Z,5.27
2018-04-28T15:33:23.062Z,3.97
2018-04-28T15:35:50.499Z,4.30
2018-04-28T15:38:18.694Z,5.23
2018-04-28T15:40:46.134Z,5.78
2018-04-28T15:43:14.371Z,4.43
2018-04-28T15:45:41.813Z,6.20
2018-04-28T15:48:09.282Z,9.17
2018-04-28T15:50:36.751Z,6.23
2018-04-28T15:53:06.042Z,6.93
2018-04-28T15:55:33.492Z,3.17
2018-04-28T15:58:00.914Z,3.23
2018-04-28T16:00:28.374Z,3.00
2018-04-28T16:02:55.850Z,5.75
2018-04-28T16:05:23.282Z,3.50
2018-04-28T16:07:50.807Z,4.60
2018-04-28T16:10:18.255Z,6.17
2018-04-28T16:12:45.709Z,4.90
2018-04-28T16:15:13.358Z,5.57
2018-04-28T16:17:40.770Z,4.97
2018-04-28T16:20:08.264Z,4.83
2018-04-28T16:22:36.487Z,3.87
2018-04-28T16:25:04.270Z,4.03
2018-04-28T16:27:31.821Z,4.43
2018-04-28T16:29:59.211Z,6.82
2018-04-28T16:32:26.722Z,4.30
2018-04-28T16:34:54.944Z,6.00
2018-04-28T16:37:22.371Z,4.93
2018-04-28T16:39:51.443Z,6.40
2018-04-28T16:42:19.639Z,5.70
2018-04-28T16:47:15.768Z,7.30
2018-04-28T16:49:43.275Z,6.20
2018-04-28T16:52:15.449Z,7.37
2018-04-28T16:54:43.704Z,7.40
2018-04-28T16:57:12.054Z,8.20
2018-04-28T16:59:39.672Z,9.63
2018-04-28T17:02:09.261Z,9.40
2018-04-28T17:04:47.066Z,12.07
2018-04-28T17:07:16.109Z,9.67
2018-04-28T17:09:43.595Z,10.07
2018-04-28T17:12:11.960Z,12.13
2018-04-28T17:14:42.316Z,11.77
2018-04-28T17:17:10.121Z,12.33
2018-04-28T17:19:37.556Z,11.73
2018-04-28T17:22:06.986Z,11.10
2018-04-28T17:24:34.521Z,10.40
2018-04-28T17:27:07.898Z,10.30
2018-04-28T17:29:38.532Z,10.33
2018-04-28T17:32:06.918Z,10.30
2018-04-28T17:34:35.308Z,9.63
2018-04-28T17:37:09.592Z,11.40
2018-04-28T17:39:36.986Z,9.63
2018-04-28T17:42:10.463Z,9.13
2018-04-28T17:44:37.989Z,11.33
2018-04-28T17:47:05.783Z,8.63
2018-04-28T17:49:33.265Z,9.03
2018-04-28T17:52:01.545Z,9.50
2018-04-28T17:54:29.018Z,9.47
2018-04-28T17:56:56.496Z,9.47
2018-04-28T17:59:24.835Z,9.13
2018-04-28T18:01:54.017Z,9.17
2018-04-28T18:04:21.455Z,9.33
2018-04-28T18:06:50.942Z,8.10
2018-04-28T18:09:18.409Z,7.63
2018-04-28T18:11:48.887Z,7.80
2018-04-28T18:14:17.129Z,8.37
2018-04-28T18:16:44.608Z,7.73
2018-04-28T18:19:12.115Z,8.67
2018-04-28T18:21:41.499Z,10.33
2018-04-28T18:24:16.009Z,10.07
2018-04-28T18:26:44.273Z,10.07
2018-04-28T18:29:11.784Z,9.73
2018-04-28T18:31:40.187Z,10.40
2018-04-28T18:34:07.691Z,10.03
2018-04-28T18:36:35.942Z,9.20
2018-04-28T18:39:05.963Z,9.47
2018-04-28T18:41:35.216Z,8.37
2018-04-28T18:44:02.830Z,8.10
2018-04-28T18:46:32.216Z,7.67
2018-04-28T18:48:59.656Z,8.37
2018-04-28T18:51:27.129Z,8.20
2018-04-28T18:53:54.695Z,8.67
2018-04-28T18:56:24.186Z,10.07
2018-04-28T18:58:52.750Z,12.53
2018-04-28T19:01:22.222Z,15.20
2018-04-28T19:03:51.684Z,17.97
2018-04-28T19:06:20.217Z,18.37
2018-04-28T19:08:47.791Z,21.20
2018-04-28T19:11:16.431Z,21.67
2018-04-28T19:13:44.697Z,20.57
2018-04-28T19:16:12.306Z,18.30
2018-04-28T19:18:39.829Z,21.80
2018-04-28T19:21:08.294Z,21.47
2018-04-28T19:23:36.615Z,18.67
2018-04-28T19:26:04.144Z,24.07
2018-04-28T19:28:32.648Z,21.20
2018-04-28T19:31:00.244Z,27.33
2018-04-28T19:33:29.365Z,26.57
2018-04-28T19:35:58.616Z,32.90
2018-04-28T19:38:27.171Z,26.53
2018-04-28T19:40:55.037Z,24.73
2018-04-28T19:43:35.903Z,29.30
2018-04-28T19:46:04.337Z,26.60
2018-04-28T19:48:31.887Z,28.87
2018-04-28T19:51:00.185Z,24.00
2018-04-28T19:53:27.691Z,27.47
2018-04-28T19:55:55.207Z,20.20
2018-04-28T19:58:23.717Z,18.33
2018-04-28T20:00:56.386Z,19.40
2018-04-28T20:03:27.764Z,16.57
2018-04-28T20:05:56.924Z,18.73
2018-04-28T20:08:25.388Z,19.13
2018-04-28T20:10:55.817Z,19.92
2018-04-28T20:13:25.379Z,21.48
2018-04-28T20:15:53.820Z,19.58
2018-04-28T20:18:29.764Z,19.02
2018-04-28T20:20:59.603Z,19.13
2018-04-28T20:23:38.826Z,24.43
2018-04-28T20:26:08.330Z,18.37
2018-04-28T20:28:37.811Z,16.43
2018-04-28T20:31:15.050Z,20.70
2018-04-28T20:33:49.852Z,17.00
2018-04-28T20:36:17.423Z,19.87
2018-04-28T20:38:45.013Z,18.17
2018-04-28T20:41:13.773Z,24.47
2018-04-28T20:43:42.257Z,19.53
2018-04-28T20:46:11.687Z,22.97
2018-04-28T20:48:39.536Z,34.60
2018-04-28T20:51:10.509Z,25.90
2018-04-28T20:53:40.049Z,19.00
2018-04-28T20:56:07.576Z,22.07
2018-04-28T20:58:35.087Z,18.20
2018-04-28T21:01:03.454Z,18.47
2018-04-28T21:03:34.722Z,21.07
2018-04-28T21:06:03.984Z,20.23
2018-04-28T21:08:31.486Z,24.23
2018-04-28T21:10:59.784Z,28.83
2018-04-28T21:13:29.522Z,29.33
2018-04-28T21:16:00.135Z,33.60
2018-04-28T21:18:28.595Z,28.43
2018-04-28T21:20:57.053Z,32.67
2018-04-28T21:23:29.244Z,30.90
2018-04-28T21:25:57.123Z,35.17
2018-04-28T21:28:25.979Z,34.70
2018-04-28T21:30:55.310Z,35.97
2018-04-28T21:33:23.747Z,41.53
2018-04-28T21:35:53.296Z,36.67
2018-04-28T21:38:23.525Z,37.33
2018-04-28T21:40:56.743Z,37.50
2018-04-28T21:43:27.583Z,38.13
2018-04-28T21:46:00.773Z,27.73
2018-04-28T21:48:30.006Z,21.00
2018-04-28T21:51:01.446Z,25.87
2018-04-28T21:53:29.175Z,24.17
2018-04-28T21:55:56.673Z,25.50
2018-04-28T21:58:25.130Z,22.83
2018-04-28T22:00:53.568Z,19.63
2018-04-28T22:03:21.109Z,27.27
2018-04-28T22:05:55.304Z,32.50
2018-04-28T22:08:26.037Z,30.63
2018-04-28T22:10:53.525Z,27.07
2018-04-28T22:13:22.683Z,27.30
2018-04-28T22:15:54.243Z,27.40
2018-04-28T22:18:27.599Z,32.77
2018-04-28T22:20:55.126Z,30.80
2018-04-28T22:23:23.404Z,31.97
2018-04-28T22:25:51.931Z,33.50
2018-04-28T22:28:20.133Z,25.60
2018-04-28T22:30:47.963Z,27.37
2018-04-28T22:33:16.571Z,20.20
2018-04-28T22:35:44.064Z,18.27
2018-04-28T22:38:18.162Z,23.60
2018-04-28T22:40:47.634Z,17.80
2018-04-28T22:43:16.116Z,20.37
2018-04-28T22:45:47.918Z,17.57
2018-04-28T22:48:27.902Z,17.70
2018-04-28T22:50:55.647Z,18.30
2018-04-28T22:53:25.188Z,17.00
2018-04-28T22:55:58.497Z,16.20
2018-04-28T22:58:31.676Z,19.13
2018-04-28T23:01:04.029Z,21.60
2018-04-28T23:03:32.482Z,17.03
2018-04-28T23:06:06.016Z,20.10
2018-04-28T23:08:34.251Z,21.73
2018-04-28T23:11:02.810Z,19.40
2018-04-28T23:13:30.296Z,20.67
2018-04-28T23:15:57.902Z,22.50
2018-04-28T23:18:25.748Z,26.27
2018-04-28T23:20:53.354Z,27.20
2018-04-28T23:23:24.797Z,27.23
2018-04-28T23:25:54.216Z,27.63
2018-04-28T23:28:25.570Z,26.83
2018-04-28T23:30:54.002Z,27.90
2018-04-28T23:33:23.152Z,33.93
2018-04-28T23:35:57.815Z,30.17
2018-04-28T23:38:27.092Z,34.73
2018-04-28T23:40:55.712Z,32.57
2018-04-28T23:43:24.972Z,33.00
2018-04-28T23:45:53.376Z,29.53
2018-04-28T23:48:22.661Z,21.07
2018-04-28T23:50:50.947Z,24.83
2018-04-28T23:53:20.156Z,32.57
2018-04-28T23:55:53.122Z,33.83
2018-04-28T23:58:31.641Z,30.23
